Hyalite Weather Station

STATION TAKEN DOWN FOR SEASON

This weather station provides temperature, wind speed, gust or max wind speed, and wind direction at 9982ft near the summit of Flanders Mountain. This data can be used with temperature and precipitation data from the Shower Falls SNOTEL site. If the data has not been updated recently you can view it directly on datagarrison.com

Elevation
9982ft
Jump to table bottom
Date Time Temperature
deg F
RH, % Wind Speed Wind Gust Wind Direction
03/28/21 12:00 37.5 89 0 4 S - 192
03/28/21 11:00 28.7 93 8 41 S - 199
03/28/21 10:00 29.4 43 30 45 W - 248
03/28/21 09:00 28.1 43 30 49 W - 254
03/28/21 08:00 27.0 42 30 44 W - 254
03/28/21 07:00 26.2 47 33 46 W - 257
03/28/21 06:00 26.8 44 31 54 W - 253
03/28/21 05:00 27.4 47 31 52 W - 258
03/28/21 04:00 26.2 53 24 43 W - 263
03/28/21 03:00 28.2 47 29 47 W - 265
03/28/21 02:00 27.6 51 27 48 W - 258
03/28/21 01:00 27.0 55 27 46 W - 265
03/28/21 00:00 25.3 68 30 52 W - 267
03/27/21 23:00 24.8 67 26 47 W - 263
03/27/21 22:00 25.7 61 29 41 W - 257
03/27/21 21:00 24.5 68 28 39 W - 256
03/27/21 20:00 23.6 76 24 40 W - 253
03/27/21 19:00 22.7 93 19 31 W - 250
03/27/21 18:00 24.0 96 14 22 W - 250
03/27/21 17:00 23.1 97 10 17 W - 257
03/27/21 16:00 23.6 96 13 20 W - 261
03/27/21 15:00 22.7 96 14 26 W - 265
03/27/21 14:00 20.9 96 14 26 W - 261
03/27/21 13:00 19.6 95 15 24 W - 260
03/27/21 12:00 17.5 95 14 27 W - 275
03/27/21 11:00 16.8 95 17 28 W - 275
03/27/21 10:00 15.9 94 18 31 W - 268
03/27/21 09:00 15.7 94 17 31 W - 272
03/27/21 08:00 15.3 94 19 30 W - 272
03/27/21 07:00 14.9 94 19 35 W - 271
03/27/21 06:00 14.4 94 19 31 W - 272
03/27/21 05:00 14.1 94 20 33 W - 268
03/27/21 04:00 13.9 94 22 34 W - 267
03/27/21 03:00 13.6 94 21 32 W - 267
03/27/21 02:00 13.3 93 20 32 W - 271
03/27/21 01:00 12.8 93 20 33 W - 268
03/27/21 00:00 12.5 93 21 34 W - 274
03/26/21 23:00 12.5 93 21 33 W - 277
03/26/21 22:00 13.0 93 20 32 W - 271
03/26/21 21:00 13.3 93 17 28 W - 277
03/26/21 20:00 12.9 93 17 31 W - 278
03/26/21 19:00 13.9 94 18 31 W - 275
03/26/21 18:00 14.1 94 15 30 W - 268
03/26/21 17:00 14.4 94 18 32 W - 263
03/26/21 16:00 15.1 93 19 34 W - 261
03/26/21 15:00 14.3 93 15 33 W - 268
03/26/21 14:00 15.6 94 13 25 W - 275
03/26/21 13:00 15.7 94 10 25 W - 264
03/26/21 12:00 12.6 93 12 26 W - 272
03/26/21 11:00 12.3 93 10 18 W - 275